Time;durP1;ratioP1;P1;durP2;ratioP2;P2;SDS_P1;SDS_P2;PMS_P1;PMS_P2;Temp;Humidity;BMP_temperature;BMP_pressure;BME280_temperature;BME280_humidity;BME280_pressure;Samples;Min_cycle;Max_cycle;Signal;HPM_P1;HPM_P2
2021/10/21 00:00:56;;;;;;;55.83;19.50;;;;;;;7.18;82.03;98204.50;4859951;29;20062;-93
2021/10/21 00:03:22;;;;;;;45.25;17.10;;;;;;;7.05;81.76;98172.84;4841430;29;20046;-85
2021/10/21 00:05:48;;;;;;;56.40;19.15;;;;;;;7.26;81.84;98194.78;4868143;29;20459;-86
2021/10/21 00:08:14;;;;;;;61.70;20.23;;;;;;;7.17;81.94;98156.72;4863075;29;20045;-86
2021/10/21 00:10:45;;;;;;;61.90;22.35;;;;;;;7.24;82.03;98143.44;4866025;29;20045;-93
2021/10/21 00:13:12;;;;;;;63.72;20.85;;;;;;;7.30;81.86;98135.94;4846353;29;20049;-86
2021/10/21 00:15:40;;;;;;;63.80;20.48;;;;;;;7.38;82.09;98143.28;4864407;29;20045;-86
2021/10/21 00:18:06;;;;;;;66.22;21.58;;;;;;;7.37;81.96;98133.53;4847889;29;20247;-85
2021/10/21 00:20:34;;;;;;;85.13;22.90;;;;;;;7.29;82.27;98135.16;4847913;29;20084;-86
2021/10/21 00:23:00;;;;;;;57.85;19.90;;;;;;;7.28;82.25;98110.97;4873550;29;20042;-87
2021/10/21 00:25:26;;;;;;;71.55;22.15;;;;;;;7.46;82.12;98104.44;4830607;29;20066;-96
2021/10/21 00:27:52;;;;;;;63.83;22.83;;;;;;;7.50;82.11;98083.63;4845438;29;20049;-87
2021/10/21 00:30:20;;;;;;;61.20;19.08;;;;;;;7.00;82.27;98012.72;4874567;29;20044;-88
2021/10/21 00:32:47;;;;;;;66.38;22.55;;;;;;;7.16;82.29;98054.56;4864872;29;20603;-90
2021/10/21 00:35:14;;;;;;;70.22;22.23;;;;;;;7.51;82.22;98095.28;4859728;29;20046;-90
2021/10/21 00:37:40;;;;;;;70.20;23.97;;;;;;;7.46;82.39;98098.19;4858955;29;20053;-90
2021/10/21 00:40:08;;;;;;;71.15;24.23;;;;;;;7.66;82.14;98127.44;4878592;29;20058;-90
2021/10/21 00:42:34;;;;;;;74.53;23.52;;;;;;;7.71;82.32;98110.91;4862623;29;20072;-89
2021/10/21 00:45:01;;;;;;;71.77;22.77;;;;;;;7.66;81.99;98108.38;4847537;29;20105;-90
2021/10/21 00:47:33;;;;;;;73.85;24.52;;;;;;;7.73;82.13;98103.25;4869030;29;20053;-88
2021/10/21 00:50:00;;;;;;;71.53;24.73;;;;;;;7.65;81.95;98070.63;4865922;29;20042;-89
2021/10/21 00:52:26;;;;;;;68.90;23.38;;;;;;;7.77;82.21;98089.78;4864297;29;20064;-89
2021/10/21 00:55:06;;;;;;;73.53;23.33;;;;;;;7.67;82.17;98057.50;4849443;29;20048;-89
2021/10/21 00:57:32;;;;;;;63.45;21.27;;;;;;;7.61;82.31;98037.84;4834973;29;20054;-90
2021/10/21 00:59:58;;;;;;;81.97;25.45;;;;;;;7.85;82.19;98053.63;4839077;29;20041;-92
2021/10/21 01:02:25;;;;;;;64.63;22.10;;;;;;;7.51;82.13;98011.78;4846115;29;20044;-94
2021/10/21 01:04:51;;;;;;;71.18;24.27;;;;;;;7.97;82.28;98066.53;4847396;29;20050;-94
2021/10/21 01:07:20;;;;;;;;;;;;;;;8.10;82.31;98081.84;4857344;29;20103;-93
2021/10/21 01:09:46;;;;;;;63.33;22.17;;;;;;;8.12;82.25;98070.66;4845001;29;20442;-93
2021/10/21 01:12:14;;;;;;;65.20;23.40;;;;;;;7.68;82.35;97993.81;4840875;29;20048;-89
2021/10/21 01:14:42;;;;;;;67.13;22.50;;;;;;;8.05;82.08;98048.59;4852730;29;20054;-91
2021/10/21 01:17:17;;;;;;;68.78;23.02;;;;;;;8.12;82.20;98044.22;4844828;29;20041;-89
2021/10/21 01:19:43;;;;;;;74.10;24.02;;;;;;;8.10;82.35;98029.34;4852463;29;20134;-90
2021/10/21 01:22:10;;;;;;;65.90;22.42;;;;;;;8.12;82.54;98024.38;4843543;29;20050;-90
2021/10/21 01:24:37;;;;;;;71.97;24.90;;;;;;;7.86;82.26;97984.47;4827715;29;20527;-91
2021/10/21 01:27:03;;;;;;;72.30;25.30;;;;;;;8.13;82.36;98023.25;4846509;29;20041;-88
2021/10/21 01:29:29;;;;;;;74.23;22.27;;;;;;;8.27;82.64;98036.59;4837849;29;20065;-91
2021/10/21 01:31:55;;;;;;;71.53;22.63;;;;;;;8.34;82.45;98024.06;4817310;29;20041;-92
2021/10/21 01:34:24;;;;;;;69.05;23.38;;;;;;;8.17;82.43;98003.19;4837675;29;20174;-93
2021/10/21 01:36:53;;;;;;;75.43;23.55;;;;;;;7.88;82.29;97951.50;4820998;29;20045;-92
2021/10/21 01:42:08;;;;;;;64.45;22.35;;;;;;;8.27;82.24;97993.06;4840996;29;20041;-91
2021/10/21 01:44:34;;;;;;;52.40;20.08;;;;;;;8.09;82.37;97967.88;4844902;29;20113;-89
2021/10/21 01:47:01;;;;;;;55.25;19.67;;;;;;;8.18;82.21;97972.13;4837866;29;20060;-89
2021/10/21 01:49:28;;;;;;;56.95;20.58;;;;;;;8.30;82.29;97974.13;4830877;29;20033;-95
2021/10/21 01:51:54;;;;;;;68.07;22.13;;;;;;;8.34;82.48;97974.25;4838864;29;20069;-94
2021/10/21 01:54:20;;;;;;;73.18;25.05;;;;;;;8.24;82.56;97968.09;4846688;29;20044;-93
2021/10/21 01:56:48;;;;;;;64.47;23.88;;;;;;;8.25;82.38;97966.19;4853655;29;20046;-93
2021/10/21 01:59:14;;;;;;;57.60;19.77;;;;;;;8.42;82.43;97982.41;4823142;29;20094;-93
2021/10/21 02:01:43;;;;;;;70.38;24.83;;;;;;;8.45;82.47;97980.97;4836793;29;20049;-90
2021/10/21 02:04:09;;;;;;;53.75;17.85;;;;;;;8.23;82.58;97950.16;4812577;29;20050;-91
2021/10/21 02:06:38;;;;;;;71.63;23.20;;;;;;;8.31;82.41;97936.81;4839030;29;20046;-95
2021/10/21 02:09:10;;;;;;;68.25;21.60;;;;;;;8.45;82.43;97931.94;4820294;29;20034;-93
2021/10/21 02:11:36;;;;;;;82.55;27.20;;;;;;;8.50;82.79;97969.84;4821674;29;20077;-91
2021/10/21 02:14:02;;;;;;;73.32;27.15;;;;;;;8.72;82.88;97995.19;4825271;29;20482;-92
2021/10/21 02:16:28;;;;;;;77.85;26.10;;;;;;;8.35;82.88;97924.16;4829559;29;20140;-92
2021/10/21 02:18:54;;;;;;;70.00;24.10;;;;;;;8.78;82.68;97975.56;4840195;29;20132;-91
2021/10/21 02:21:22;;;;;;;69.13;25.92;;;;;;;8.82;82.63;97976.50;4841601;29;20042;-92
2021/10/21 02:23:48;;;;;;;71.60;25.48;;;;;;;8.87;82.83;97997.28;4833583;29;20056;-92
2021/10/21 02:29:03;;;;;;;70.43;25.02;;;;;;;8.69;82.68;97962.00;4828843;29;20038;-92
2021/10/21 02:31:29;;;;;;;79.07;27.42;;;;;;;8.79;82.65;97973.63;4829840;29;20045;-93
2021/10/21 02:33:56;;;;;;;;;;;;;;;8.99;82.75;97986.44;4816730;29;20111;-93
2021/10/21 02:36:23;;;;;;;82.50;26.48;;;;;;;8.76;82.84;97941.63;4846712;29;19971;-93
2021/10/21 02:38:49;;;;;;;77.15;25.38;;;;;;;9.03;82.83;97976.44;4837707;29;20053;-91
2021/10/21 02:41:15;;;;;;;84.05;26.88;;;;;;;9.11;82.78;97991.94;4846827;29;20074;-93
2021/10/21 02:43:42;;;;;;;86.18;26.77;;;;;;;8.75;82.64;97915.50;4845947;29;20102;-94
2021/10/21 02:46:09;;;;;;;85.70;27.87;;;;;;;8.88;82.57;97914.41;4861272;29;20049;-94
2021/10/21 02:48:36;;;;;;;75.43;25.70;;;;;;;8.58;82.54;97862.00;4855334;29;20049;-91
2021/10/21 02:51:03;;;;;;;86.03;26.85;;;;;;;9.03;82.86;97932.84;4845672;29;20049;-95
2021/10/21 02:53:29;;;;;;;77.07;22.75;;;;;;;9.04;82.75;97931.72;4845546;29;20082;-94
2021/10/21 02:56:25;;;;;;;84.13;29.42;;;;;;;8.67;82.52;97859.97;4844639;29;20557;-94
2021/10/21 02:58:51;;;;;;;83.57;29.23;;;;;;;8.92;82.45;97891.59;4808660;29;20078;-90
2021/10/21 03:01:17;;;;;;;85.07;28.95;;;;;;;8.76;82.62;97857.16;4836034;29;20061;-93
2021/10/21 03:03:43;;;;;;;91.80;30.77;;;;;;;9.14;82.43;97905.97;4817825;29;20062;-92
2021/10/21 03:06:09;;;;;;;76.32;24.77;;;;;;;9.08;82.34;97889.03;4778564;29;20058;-93
2021/10/21 03:08:36;;;;;;;97.78;29.95;;;;;;;9.26;82.08;97914.16;4776915;29;20063;-90
2021/10/21 03:11:02;;;;;;;98.78;31.05;;;;;;;9.11;82.08;97885.63;4801481;29;20046;-91
2021/10/21 03:13:30;;;;;;;92.80;32.03;;;;;;;9.33;82.12;97919.03;4809267;29;20054;-93
2021/10/21 03:15:56;;;;;;;101.88;30.98;;;;;;;9.24;82.05;97902.81;4780375;29;20137;-94
2021/10/21 03:18:23;;;;;;;;;;;;;;;9.58;82.24;97937.03;4809700;29;20054;-93
2021/10/21 03:20:49;;;;;;;79.70;27.30;;;;;;;9.33;82.14;97878.94;4809106;29;19925;-92
2021/10/21 03:23:19;;;;;;;73.75;26.10;;;;;;;9.35;81.96;97876.69;4808131;29;20046;-92
2021/10/21 03:25:46;;;;;;;91.25;31.70;;;;;;;9.69;81.88;97921.00;4807626;29;20058;-93
2021/10/21 03:28:13;;;;;;;95.93;32.75;;;;;;;9.73;81.54;97912.94;4803786;29;20537;-94
2021/10/21 03:30:39;;;;;;;101.63;33.13;;;;;;;9.64;81.59;97913.84;4760044;29;20086;-92
2021/10/21 03:33:07;;;;;;;94.88;31.83;;;;;;;9.68;81.30;97908.50;4804637;29;20476;-94
2021/10/21 03:35:33;;;;;;;96.28;33.80;;;;;;;9.80;81.23;97903.06;4805039;29;20050;-93
2021/10/21 03:38:00;;;;;;;;;;;;;;;9.86;81.02;97904.38;4834283;29;20045;-90
2021/10/21 03:40:51;;;;;;;84.03;29.17;;;;;;;9.88;80.90;97896.66;4860628;29;19939;-94
2021/10/21 03:43:20;;;;;;;83.43;31.00;;;;;;;9.54;80.95;97842.59;4855772;29;20523;-92
2021/10/21 03:45:46;;;;;;;92.15;32.53;;;;;;;9.95;80.72;97898.81;4827318;29;20086;-93
2021/10/21 03:48:21;;;;;;;92.18;31.27;;;;;;;9.46;80.54;97808.81;4842312;29;20041;-94
2021/10/21 03:50:48;;;;;;;88.47;32.20;;;;;;;9.65;80.71;97865.53;4834750;29;20029;-95
2021/10/21 03:53:14;;;;;;;;;;;;;;;10.03;80.67;97918.94;4846863;29;20057;-93
2021/10/21 03:55:41;;;;;;;;;;;;;;;10.05;80.43;97912.00;4848942;29;20457;-94
2021/10/21 03:58:08;;;;;;;86.75;31.25;;;;;;;9.58;80.51;97843.50;4846787;29;20385;-94
2021/10/21 04:00:34;;;;;;;89.32;30.75;;;;;;;9.57;80.23;97815.44;4830652;29;20108;-92
2021/10/21 04:03:00;;;;;;;78.22;28.42;;;;;;;9.52;80.22;97818.38;4863232;29;20053;-95
2021/10/21 04:05:27;;;;;;;77.73;29.07;;;;;;;10.02;79.95;97890.84;4861620;29;20045;-87
2021/10/21 04:07:53;;;;;;;73.15;26.55;;;;;;;9.98;80.15;97889.94;4861495;29;20056;-95
2021/10/21 04:10:19;;;;;;;79.00;28.42;;;;;;;9.92;79.85;97860.50;4847962;29;20056;-89
2021/10/21 04:12:45;;;;;;;82.35;28.08;;;;;;;9.73;79.65;97845.50;4871941;29;20037;-94
2021/10/21 04:15:12;;;;;;;73.28;28.50;;;;;;;10.03;79.53;97876.06;4867789;29;20053;-93
2021/10/21 04:17:39;;;;;;;68.75;26.20;;;;;;;10.16;79.49;97895.94;4881656;29;20089;-96
2021/10/21 04:20:06;;;;;;;74.15;28.58;;;;;;;10.12;79.62;97890.38;4859503;29;20556;-89
2021/10/21 04:22:33;;;;;;;74.20;27.67;;;;;;;10.12;79.55;97884.13;4853740;29;20503;-95
2021/10/21 04:24:59;;;;;;;;;;;;;;;10.29;79.21;97892.06;4872277;29;20042;-87
2021/10/21 04:27:25;;;;;;;73.37;26.70;;;;;;;10.26;79.11;97891.97;4894426;29;19934;-89
2021/10/21 04:29:51;;;;;;;68.85;28.45;;;;;;;10.25;79.16;97865.78;4870375;29;20531;-88
2021/10/21 04:32:17;;;;;;;69.70;27.60;;;;;;;10.37;79.09;97884.88;4854189;29;20045;-88
2021/10/21 04:34:44;;;;;;;68.13;26.42;;;;;;;10.19;78.90;97856.22;4870162;29;20048;-89
2021/10/21 04:37:10;;;;;;;66.00;26.95;;;;;;;10.37;78.80;97862.25;4865731;29;20049;-95
2021/10/21 04:39:36;;;;;;;80.17;25.93;;;;;;;10.44;78.73;97887.03;4866089;29;20549;-92
2021/10/21 04:42:03;;;;;;;65.60;26.80;;;;;;;10.49;78.56;97894.97;4863590;29;20041;-91
2021/10/21 04:44:30;;;;;;;70.70;26.23;;;;;;;10.48;78.43;97869.59;4878459;29;20068;-90
2021/10/21 04:46:56;;;;;;;57.95;24.70;;;;;;;10.51;78.31;97870.84;4863960;29;20049;-88
2021/10/21 04:49:22;;;;;;;72.45;26.17;;;;;;;10.39;78.04;97841.63;4847856;29;20048;-91
2021/10/21 04:51:48;;;;;;;67.88;26.08;;;;;;;10.60;78.20;97857.03;4855316;29;20046;-95
2021/10/21 04:54:15;;;;;;;57.72;24.45;;;;;;;10.46;77.97;97839.09;4859724;29;20046;-94
2021/10/21 04:56:43;;;;;;;71.35;25.92;;;;;;;10.33;78.03;97813.78;4855661;29;20049;-89
2021/10/21 04:59:11;;;;;;;68.32;25.85;;;;;;;10.68;77.79;97872.47;4861062;29;20041;-90
2021/10/21 05:01:36;;;;;;;64.50;25.17;;;;;;;10.56;77.67;97855.00;4861374;29;20049;-93
2021/10/21 05:04:03;;;;;;;58.67;25.50;;;;;;;10.70;77.58;97873.72;4867617;29;20065;-88
2021/10/21 05:06:30;;;;;;;60.78;25.58;;;;;;;10.74;77.60;97873.81;4862412;29;20049;-91
2021/10/21 05:08:56;;;;;;;48.88;18.38;;;;;;;10.43;77.66;97841.72;4846896;29;20073;-96
2021/10/21 05:11:22;;;;;;;56.13;23.58;;;;;;;10.58;77.82;97857.38;4863787;29;20045;-90
2021/10/21 05:13:49;;;;;;;59.00;24.95;;;;;;;10.70;77.42;97859.25;4865116;29;20503;-90
2021/10/21 05:16:15;;;;;;;64.82;25.25;;;;;;;10.63;77.58;97842.66;4848726;29;20049;-90
2021/10/21 05:18:42;;;;;;;54.80;25.30;;;;;;;10.60;77.35;97835.19;4863811;29;20056;-87
2021/10/21 05:21:08;;;;;;;59.80;25.35;;;;;;;10.79;77.30;97849.75;4864260;29;20046;-89
2021/10/21 05:23:36;;;;;;;59.88;24.25;;;;;;;10.70;77.27;97835.44;4848993;29;20509;-88
2021/10/21 05:26:02;;;;;;;57.97;24.02;;;;;;;10.72;77.65;97851.50;4864917;29;20116;-87
2021/10/21 05:28:28;;;;;;;61.88;24.38;;;;;;;10.72;77.70;97843.28;4851012;29;20137;-89
2021/10/21 05:30:54;;;;;;;61.65;25.90;;;;;;;10.60;77.58;97807.84;4851567;29;20119;-90
2021/10/21 05:33:26;;;;;;;50.75;20.73;;;;;;;10.65;77.62;97813.03;4856024;29;20170;-89
2021/10/21 05:35:55;;;;;;;68.15;25.98;;;;;;;10.92;77.55;97860.59;4854786;29;20046;-89
2021/10/21 05:38:21;;;;;;;52.55;22.67;;;;;;;10.87;77.81;97841.75;4827944;29;20538;-90
2021/10/21 05:40:48;;;;;;;;;;;;;;;10.92;77.81;97857.88;4830286;29;20050;-95
2021/10/21 05:43:14;;;;;;;53.70;21.93;;;;;;;10.69;77.70;97838.53;4831672;29;19924;-89
2021/10/21 05:45:40;;;;;;;56.45;23.90;;;;;;;10.82;77.97;97870.09;4870622;29;20226;-88
2021/10/21 05:48:06;;;;;;;61.40;23.60;;;;;;;10.77;78.09;97862.97;4848672;29;20046;-90
2021/10/21 05:50:33;;;;;;;54.03;20.98;;;;;;;10.87;78.28;97874.53;4859983;29;20124;-86
2021/10/21 05:52:59;;;;;;;65.45;24.08;;;;;;;10.74;78.05;97830.88;4846590;29;20076;-90
2021/10/21 05:58:15;;;;;;;63.65;22.45;;;;;;;10.83;78.27;97855.31;4841243;29;20053;-86
2021/10/21 06:00:41;;;;;;;58.95;24.88;;;;;;;10.84;78.18;97850.66;4831119;29;20045;-89
2021/10/21 06:03:07;;;;;;;65.72;25.05;;;;;;;10.93;78.35;97873.94;4836678;29;20169;-91
2021/10/21 06:05:33;;;;;;;58.53;23.63;;;;;;;10.82;78.44;97843.56;4844214;29;20500;-87
2021/10/21 06:08:02;;;;;;;59.03;24.05;;;;;;;10.70;78.67;97835.44;4842680;29;20130;-86
2021/10/21 06:10:30;;;;;;;55.65;23.65;;;;;;;10.97;78.99;97884.97;4838036;29;20074;-88
2021/10/21 06:12:58;;;;;;;70.75;26.58;;;;;;;10.98;79.49;97884.59;4840098;29;20041;-87
2021/10/21 06:15:25;;;;;;;62.83;25.27;;;;;;;10.92;79.99;97861.41;4857576;29;20101;-87
2021/10/21 06:17:58;;;;;;;54.63;22.10;;;;;;;10.80;79.91;97832.22;4845239;29;20061;-86
2021/10/21 06:20:24;;;;;;;75.53;30.80;;;;;;;10.49;80.36;97772.81;4832230;29;20041;-88
2021/10/21 06:22:50;;;;;;;76.82;27.55;;;;;;;11.01;80.23;97831.94;4843154;29;20069;-86
2021/10/21 06:25:17;;;;;;;66.78;26.25;;;;;;;10.90;80.16;97830.09;4835715;29;20056;-92
2021/10/21 06:27:43;;;;;;;53.53;23.48;;;;;;;11.04;80.34;97828.53;4832188;29;20048;-89
2021/10/21 06:30:09;;;;;;;55.55;23.80;;;;;;;10.91;80.07;97815.28;4836322;29;20420;-91
2021/10/21 06:32:37;;;;;;;57.05;22.90;;;;;;;10.90;80.10;97819.16;4843053;29;20069;-89
2021/10/21 06:35:04;;;;;;;59.20;24.85;;;;;;;10.86;80.06;97810.88;4823381;29;20136;-91
2021/10/21 06:37:30;;;;;;;57.28;24.25;;;;;;;11.09;80.25;97851.28;4834419;29;20049;-90
2021/10/21 06:39:56;;;;;;;67.67;26.40;;;;;;;11.14;80.26;97840.09;4840551;29;20419;-87
2021/10/21 06:42:25;;;;;;;48.05;20.67;;;;;;;11.15;80.02;97830.72;4852106;29;20355;-79
2021/10/21 06:44:55;;;;;;;56.27;23.63;;;;;;;11.17;79.97;97837.44;4852351;29;20049;-82
2021/10/21 06:47:21;;;;;;;53.60;21.60;;;;;;;11.24;79.60;97834.09;4854788;29;20088;-91
2021/10/21 06:49:47;;;;;;;58.30;24.10;;;;;;;11.34;79.59;97832.75;4856144;29;20120;-81
2021/10/21 06:52:14;;;;;;;49.95;22.20;;;;;;;11.36;79.35;97838.69;4860225;29;20042;-79
2021/10/21 06:54:40;;;;;;;54.93;23.43;;;;;;;11.33;79.38;97845.66;4858975;29;20042;-73
2021/10/21 06:57:06;;;;;;;50.20;23.60;;;;;;;11.28;79.50;97854.91;4860178;29;20045;-91
2021/10/21 06:59:32;;;;;;;59.28;23.45;;;;;;;11.22;79.79;97845.34;4859596;29;20048;-73
2021/10/21 07:01:59;;;;;;;54.45;24.55;;;;;;;11.27;79.96;97833.38;4858134;29;20049;-72
2021/10/21 07:04:25;;;;;;;62.67;24.05;;;;;;;11.22;79.95;97811.75;4873478;29;20057;-73
2021/10/21 07:06:51;;;;;;;59.10;22.90;;;;;;;11.28;79.89;97799.41;4859792;29;20046;-73
2021/10/21 07:09:17;;;;;;;72.43;26.17;;;;;;;11.39;79.85;97780.50;4859936;29;20049;-91
2021/10/21 07:11:43;;;;;;;53.63;23.90;;;;;;;11.40;79.22;97791.09;4858513;29;20084;-73
2021/10/21 07:14:09;;;;;;;54.67;24.17;;;;;;;11.55;79.48;97803.16;4858640;29;20125;-74
2021/10/21 07:16:35;;;;;;;70.75;25.77;;;;;;;11.57;79.43;97822.75;4858711;29;20049;-74
2021/10/21 07:19:01;;;;;;;61.88;24.30;;;;;;;11.53;79.19;97832.81;4873783;29;20053;-76
2021/10/21 07:21:28;;;;;;;52.42;23.60;;;;;;;11.41;79.16;97828.25;4859197;29;20060;-88
2021/10/21 07:23:54;;;;;;;74.22;27.73;;;;;;;11.53;79.27;97830.09;4858988;29;20057;-73
2021/10/21 07:26:20;;;;;;;66.72;26.38;;;;;;;11.44;79.25;97813.84;4857968;29;20088;-76
2021/10/21 07:28:46;;;;;;;61.10;24.83;;;;;;;11.61;78.86;97839.25;4841552;29;20050;-84
2021/10/21 07:31:15;;;;;;;56.88;23.63;;;;;;;11.53;78.84;97814.47;4840745;29;20658;-93
2021/10/21 07:33:41;;;;;;;58.13;24.17;;;;;;;11.66;78.43;97839.78;4858728;29;20628;-92
2021/10/21 07:36:09;;;;;;;63.60;26.38;;;;;;;11.69;78.32;97854.69;4859412;29;20481;-76
2021/10/21 07:38:36;;;;;;;65.25;25.23;;;;;;;11.69;78.51;97863.72;4859217;29;20082;-76
2021/10/21 07:41:02;;;;;;;67.90;28.50;;;;;;;11.76;78.24;97863.06;4859584;29;20407;-76
2021/10/21 07:43:29;;;;;;;65.40;27.73;;;;;;;11.82;78.20;97860.84;4859821;29;20041;-75
2021/10/21 07:45:56;;;;;;;54.22;23.95;;;;;;;11.73;77.64;97858.31;4858211;29;20369;-75
2021/10/21 07:48:22;;;;;;;61.85;25.88;;;;;;;11.77;78.03;97861.91;4862624;29;20146;-91
2021/10/21 07:50:48;;;;;;;60.88;24.67;;;;;;;11.80;77.79;97861.22;4863732;29;20042;-88
2021/10/21 07:53:14;;;;;;;60.85;23.65;;;;;;;11.84;77.61;97867.59;4863221;29;20071;-76
2021/10/21 07:55:40;;;;;;;58.35;24.75;;;;;;;11.82;77.51;97869.88;4863054;29;20038;-77
2021/10/21 07:58:06;;;;;;;62.58;25.52;;;;;;;11.86;77.58;97878.19;4862427;29;20061;-76
2021/10/21 08:00:33;;;;;;;59.03;23.48;;;;;;;11.86;77.57;97891.88;4862446;29;20038;-77
2021/10/21 08:02:59;;;;;;;59.60;23.40;;;;;;;11.88;77.48;97904.03;4862739;29;20050;-94
2021/10/21 08:05:27;;;;;;;56.20;22.80;;;;;;;11.88;77.33;97887.63;4862757;29;20079;-76
2021/10/21 08:07:54;;;;;;;60.92;23.40;;;;;;;11.91;77.30;97892.38;4862620;29;20132;-94
2021/10/21 08:10:20;;;;;;;54.47;22.70;;;;;;;11.98;77.09;97892.53;4862546;29;20531;-87
2021/10/21 08:12:48;;;;;;;53.10;21.50;;;;;;;11.89;77.07;97886.47;4876623;29;20056;-82
2021/10/21 08:15:15;;;;;;;56.45;21.52;;;;;;;11.95;76.82;97896.00;4862425;29;20041;-82
2021/10/21 08:17:43;;;;;;;54.08;23.15;;;;;;;11.97;76.85;97877.25;4862118;29;20049;-82
2021/10/21 08:20:11;;;;;;;57.78;23.27;;;;;;;12.04;76.80;97887.59;4862219;29;20500;-82
2021/10/21 08:22:44;;;;;;;48.72;21.90;;;;;;;12.03;76.48;97863.31;4862446;29;20176;-87
2021/10/21 08:25:11;;;;;;;53.03;22.20;;;;;;;12.09;76.41;97862.66;4862546;29;20145;-78
2021/10/21 08:27:39;;;;;;;55.88;23.83;;;;;;;12.06;76.46;97857.91;4865384;29;20041;-83
2021/10/21 08:30:07;;;;;;;63.20;23.65;;;;;;;11.98;76.19;97837.75;4862203;29;20062;-78
2021/10/21 08:32:33;;;;;;;61.35;22.83;;;;;;;12.06;76.20;97841.47;4861716;29;20112;-83
2021/10/21 08:35:00;;;;;;;61.17;23.10;;;;;;;12.10;76.04;97863.47;4861365;29;20041;-82
2021/10/21 08:37:26;;;;;;;54.40;23.00;;;;;;;12.11;76.07;97856.81;4861237;29;20053;-79
2021/10/21 08:39:53;;;;;;;49.43;21.73;;;;;;;12.06;75.64;97840.69;4860987;29;20041;-83
2021/10/21 08:42:19;;;;;;;59.70;22.42;;;;;;;12.10;75.73;97855.25;4861466;29;20045;-79
2021/10/21 08:44:46;;;;;;;58.83;23.73;;;;;;;12.21;75.76;97872.69;4861887;29;20140;-78
2021/10/21 08:47:13;;;;;;;47.28;22.13;;;;;;;12.24;75.88;97882.94;4862262;29;20080;-78
2021/10/21 08:49:42;;;;;;;51.60;21.65;;;;;;;12.24;75.82;97880.19;4862188;29;20042;-88
2021/10/21 08:52:11;;;;;;;56.33;21.63;;;;;;;12.25;75.61;97887.28;4861918;29;20057;-76
2021/10/21 08:54:37;;;;;;;49.33;22.65;;;;;;;12.23;75.81;97843.00;4861670;29;20069;-78
2021/10/21 08:57:03;;;;;;;51.28;22.55;;;;;;;12.28;75.37;97823.50;4861870;29;20045;-79
2021/10/21 08:59:32;;;;;;;48.45;21.88;;;;;;;12.39;75.29;97835.50;4860730;29;20049;-76
2021/10/21 09:03:01;;;;;;;;;;;;;;;12.40;75.02;97841.78;4862141;29;20045;-77
2021/10/21 09:07:58;;;;;;;52.88;21.10;;;;;;;12.49;74.77;97841.56;4861818;29;20049;-77
2021/10/21 09:10:25;;;;;;;46.10;19.25;;;;;;;12.49;74.62;97833.34;4849739;29;20053;-75
2021/10/21 09:12:51;;;;;;;47.42;20.77;;;;;;;12.52;74.62;97822.44;4861810;29;20403;-92
2021/10/21 09:15:24;;;;;;;59.05;21.23;;;;;;;12.58;74.26;97845.66;4861567;29;20042;-77
2021/10/21 09:17:53;;;;;;;49.45;19.58;;;;;;;12.61;74.36;97835.91;4861505;29;20064;-77
2021/10/21 09:20:41;;;;;;;45.03;19.02;;;;;;;12.62;74.02;97846.53;4851040;29;20038;-77
2021/10/21 09:23:18;;;;;;;44.90;19.00;;;;;;;12.73;73.76;97863.16;4853322;29;20045;-77
2021/10/21 09:25:46;;;;;;;50.33;19.10;;;;;;;12.76;73.46;97858.91;4859835;29;20045;-77
2021/10/21 09:28:27;;;;;;;46.10;19.48;;;;;;;12.79;73.26;97860.94;4860529;29;20101;-80
2021/10/21 09:31:12;;;;;;;46.97;19.13;;;;;;;12.83;73.31;97861.78;4859956;29;20073;-87
2021/10/21 09:33:54;;;;;;;42.20;19.38;;;;;;;12.84;72.89;97875.13;4841708;29;20046;-78
2021/10/21 09:36:22;;;;;;;43.75;19.65;;;;;;;12.86;72.79;97870.06;4858286;29;20049;-77
2021/10/21 09:38:56;;;;;;;47.50;18.90;;;;;;;12.90;72.92;97878.38;4860043;29;20420;-77
2021/10/21 09:41:34;;;;;;;47.63;19.98;;;;;;;12.99;72.76;97889.91;4861006;29;20132;-78
2021/10/21 09:44:23;;;;;;;45.83;18.35;;;;;;;12.91;72.45;97867.06;4858015;29;20100;-78
2021/10/21 09:46:49;;;;;;;48.08;19.42;;;;;;;13.06;72.40;97883.75;4858409;29;20053;-77
2021/10/21 09:49:21;;;;;;;43.50;19.27;;;;;;;13.13;72.10;97864.69;4854291;29;20044;-85
2021/10/21 09:51:51;;;;;;;43.10;18.38;;;;;;;13.13;71.99;97861.94;4839938;29;20046;-90
2021/10/21 09:54:21;;;;;;;49.78;19.42;;;;;;;13.18;72.06;97858.91;4843963;29;20048;-77
2021/10/21 09:56:58;;;;;;;48.63;18.48;;;;;;;13.17;72.10;97865.53;4856544;29;20547;-76
2021/10/21 09:59:32;;;;;;;37.60;17.57;;;;;;;13.19;71.93;97846.75;4854138;29;20101;-76
2021/10/21 10:02:15;;;;;;;43.53;17.50;;;;;;;13.26;71.53;97854.34;4856816;29;20156;-76
2021/10/21 10:04:52;;;;;;;43.97;17.30;;;;;;;13.29;71.29;97857.16;4856320;29;20111;-77
2021/10/21 10:07:28;;;;;;;42.28;18.48;;;;;;;13.32;71.44;97856.44;4838735;29;20041;-76
2021/10/21 10:09:59;;;;;;;45.63;18.23;;;;;;;13.41;71.25;97864.41;4852300;29;20616;-76
2021/10/21 10:12:38;;;;;;;44.05;18.27;;;;;;;13.55;70.78;97867.38;4855677;29;20056;-78
2021/10/21 10:15:05;;;;;;;43.65;19.75;;;;;;;13.77;70.69;97867.69;4854946;29;20523;-77
2021/10/21 10:17:31;;;;;;;43.67;18.27;;;;;;;14.02;69.63;97868.09;4850313;29;20049;-77
2021/10/21 10:19:59;;;;;;;44.28;18.02;;;;;;;14.08;69.49;97872.09;4843121;29;20042;-77
2021/10/21 10:22:33;;;;;;;46.78;19.45;;;;;;;14.34;69.57;97894.03;4841597;29;20106;-77
2021/10/21 10:25:17;;;;;;;44.20;18.92;;;;;;;14.39;68.39;97894.88;4854269;29;20494;-76
2021/10/21 10:28:04;;;;;;;59.72;20.45;;;;;;;14.41;68.91;97889.81;4854066;29;20041;-77
2021/10/21 10:30:46;;;;;;;37.15;15.18;;;;;;;14.41;68.21;97898.84;4854629;29;20049;-89
2021/10/21 10:33:42;;;;;;;46.97;18.48;;;;;;;14.41;68.44;97887.06;4854581;29;20052;-81
2021/10/21 10:36:30;;;;;;;29.30;13.05;;;;;;;14.52;67.95;97877.78;4834009;29;20050;-77
2021/10/21 10:38:58;;;;;;;32.10;15.68;;;;;;;14.73;67.16;97870.97;4853810;29;20040;-78
2021/10/21 10:41:44;;;;;;;36.55;15.73;;;;;;;14.76;67.02;97871.00;4853151;29;20053;-78
2021/10/21 10:44:34;;;;;;;38.28;15.70;;;;;;;14.64;67.34;97887.00;4853364;29;20068;-79
2021/10/21 10:47:01;;;;;;;39.08;17.33;;;;;;;14.56;67.76;97881.38;4853062;29;20053;-88
2021/10/21 10:49:39;;;;;;;37.60;17.17;;;;;;;14.46;68.04;97876.50;4852294;29;20045;-87
2021/10/21 10:52:16;;;;;;;33.75;16.52;;;;;;;14.49;67.99;97885.97;4852561;29;20049;-78
2021/10/21 10:54:51;;;;;;;32.97;17.40;;;;;;;14.54;67.76;97863.69;4866118;29;20064;-79
2021/10/21 10:57:25;;;;;;;36.55;16.13;;;;;;;14.57;67.77;97871.19;4852193;29;20056;-78
2021/10/21 10:59:54;;;;;;;36.58;16.30;;;;;;;14.78;67.47;97862.38;4851725;29;20129;-79
2021/10/21 11:02:25;;;;;;;37.05;16.75;;;;;;;14.79;67.01;97862.00;4852536;29;20098;-79
2021/10/21 11:04:54;;;;;;;44.40;17.17;;;;;;;14.84;67.42;97860.88;4851244;29;20045;-84
2021/10/21 11:07:26;;;;;;;38.40;16.92;;;;;;;14.84;67.01;97852.63;4851646;29;20057;-79
2021/10/21 11:10:13;;;;;;;38.67;17.25;;;;;;;14.83;66.52;97847.50;4851242;29;20069;-90
2021/10/21 11:12:42;;;;;;;38.13;16.20;;;;;;;14.98;66.74;97860.25;4849799;29;20081;-79
2021/10/21 11:15:30;;;;;;;35.20;17.52;;;;;;;15.02;66.77;97848.09;4850636;29;20047;-79
2021/10/21 11:17:58;;;;;;;34.63;16.85;;;;;;;15.00;66.52;97857.91;4850498;29;20049;-83
2021/10/21 11:20:30;;;;;;;33.22;16.08;;;;;;;14.94;66.63;97868.47;4850288;29;20048;-78
2021/10/21 11:23:00;;;;;;;35.22;16.35;;;;;;;14.93;66.62;97869.63;4854028;29;20048;-80
2021/10/21 11:25:31;;;;;;;39.05;15.88;;;;;;;14.90;66.77;97875.06;4853014;29;20056;-78
2021/10/21 11:28:00;;;;;;;33.17;16.30;;;;;;;14.90;66.98;97872.31;4853378;29;20048;-77
2021/10/21 11:30:31;;;;;;;38.67;16.33;;;;;;;14.91;66.94;97874.72;4853146;29;20097;-79
2021/10/21 11:33:00;;;;;;;42.38;16.48;;;;;;;14.93;67.06;97879.81;4853037;29;20043;-79
2021/10/21 11:35:28;;;;;;;37.58;15.65;;;;;;;14.82;66.86;97865.97;4852504;29;20503;-78
2021/10/21 11:37:56;;;;;;;39.80;17.33;;;;;;;14.78;67.03;97854.91;4852915;29;20113;-78
2021/10/21 11:40:39;;;;;;;36.95;17.38;;;;;;;14.92;66.97;97872.75;4852358;29;20555;-78